Time;durP1;ratioP1;P1;durP2;ratioP2;P2;SDS_P1;SDS_P2;PMS_P1;PMS_P2;Temp;Humidity;BMP_temperature;BMP_pressure;BME280_temperature;BME280_humidity;BME280_pressure;Samples;Min_cycle;Max_cycle;Signal;HPM_P1;HPM_P2
2023/04/11 00:01:50;;;;;;;10.32;1.95;;;11.50;99.90;;;;;;4965231;28;20498;-91
2023/04/11 00:04:19;;;;;;;8.40;1.85;;;11.40;99.90;;;;;;4956972;28;20017;-88
2023/04/11 00:06:46;;;;;;;12.00;2.25;;;11.50;99.90;;;;;;4972218;28;20047;-94
2023/04/11 00:09:11;;;;;;;10.85;1.90;;;11.50;99.90;;;;;;4974970;28;20034;-88
2023/04/11 00:11:37;;;;;;;4.20;1.35;;;11.60;99.90;;;;;;4974131;28;20118;-93
2023/04/11 00:14:04;;;;;;;18.35;2.30;;;11.50;99.90;;;;;;4967514;28;20226;-90
2023/04/11 00:16:32;;;;;;;9.50;1.85;;;11.50;99.90;;;;;;4967007;28;20463;-91
2023/04/11 00:19:01;;;;;;;7.82;2.00;;;11.50;99.90;;;;;;4964668;28;20023;-86
2023/04/11 00:21:27;;;;;;;11.30;2.13;;;11.60;99.90;;;;;;4962041;28;20639;-85
2023/04/11 00:23:53;;;;;;;14.07;2.60;;;11.50;99.90;;;;;;4972099;28;20018;-86
2023/04/11 00:26:20;;;;;;;11.20;2.47;;;11.40;99.90;;;;;;4970144;28;20098;-85
2023/04/11 00:28:46;;;;;;;14.02;1.98;;;11.50;99.90;;;;;;4951074;28;20058;-87
2023/04/11 00:31:12;;;;;;;10.68;2.20;;;11.40;99.90;;;;;;4962878;28;20038;-85
2023/04/11 00:33:38;;;;;;;14.90;2.50;;;11.40;99.90;;;;;;4962102;28;20027;-85
2023/04/11 00:36:04;;;;;;;15.90;2.50;;;11.40;99.90;;;;;;4962206;28;20550;-85
2023/04/11 00:38:31;;;;;;;20.83;3.13;;;11.30;99.90;;;;;;4946585;28;20031;-85
2023/04/11 00:40:56;;;;;;;20.25;3.38;;;11.40;99.90;;;;;;4960104;28;20244;-84
2023/04/11 00:43:24;;;;;;;22.30;3.92;;;11.40;99.90;;;;;;4964255;28;20471;-89
2023/04/11 00:45:50;;;;;;;17.92;3.03;;;11.50;99.90;;;;;;4963217;28;20027;-87
2023/04/11 00:48:16;;;;;;;13.80;2.70;;;11.50;99.90;;;;;;4952101;28;20033;-84
2023/04/11 00:50:42;;;;;;;7.28;2.80;;;11.50;99.90;;;;;;4968995;28;20122;-87
2023/04/11 00:53:11;;;;;;;18.75;3.03;;;11.50;99.90;;;;;;4968663;28;20057;-87
2023/04/11 00:55:36;;;;;;;22.40;3.20;;;11.50;99.90;;;;;;4963005;28;20508;-86
2023/04/11 00:58:02;;;;;;;19.40;3.03;;;11.50;99.90;;;;;;4963904;28;20141;-86
2023/04/11 01:00:32;;;;;;;20.92;4.18;;;11.50;99.90;;;;;;4947696;28;20027;-86
2023/04/11 01:02:59;;;;;;;19.98;4.55;;;11.50;99.90;;;;;;4966490;28;20029;-86
2023/04/11 01:05:26;;;;;;;18.73;3.42;;;11.40;99.90;;;;;;4967856;28;20031;-85
2023/04/11 01:07:54;;;;;;;27.27;4.15;;;11.40;99.90;;;;;;4965698;28;20077;-86
2023/04/11 01:10:21;;;;;;;26.50;3.92;;;11.40;99.90;;;;;;4962599;28;20053;-86
2023/04/11 01:12:47;;;;;;;18.98;4.07;;;11.40;99.90;;;;;;4964815;28;20019;-87
2023/04/11 01:15:12;;;;;;;13.88;3.63;;;11.40;99.90;;;;;;4964493;28;20026;-85
2023/04/11 01:17:40;;;;;;;23.48;4.28;;;11.40;99.90;;;;;;4964189;28;20037;-85
2023/04/11 01:20:07;;;;;;;21.08;4.25;;;11.30;99.90;;;;;;4965270;28;20396;-88
2023/04/11 01:22:35;;;;;;;21.40;4.18;;;11.30;99.90;;;;;;4964682;28;20438;-89
2023/04/11 01:25:00;;;;;;;20.95;4.25;;;11.30;99.90;;;;;;4948440;28;20034;-86
2023/04/11 01:27:26;;;;;;;15.20;4.13;;;11.30;99.90;;;;;;4964834;28;20050;-86
2023/04/11 01:29:52;;;;;;;29.02;4.78;;;11.30;99.90;;;;;;4964295;28;20618;-85
2023/04/11 01:32:17;;;;;;;24.35;4.50;;;11.20;99.90;;;;;;4963236;28;20027;-85
2023/04/11 01:34:45;;;;;;;28.27;4.22;;;11.20;99.90;;;;;;4962731;28;20031;-85
2023/04/11 01:37:11;;;;;;;21.30;4.70;;;11.20;99.90;;;;;;4945366;28;20110;-85
2023/04/11 01:39:37;;;;;;;25.15;4.40;;;11.20;99.90;;;;;;4963475;28;20102;-86
2023/04/11 01:42:03;;;;;;;28.67;4.05;;;11.20;99.90;;;;;;4948575;28;20037;-86
2023/04/11 01:44:32;;;;;;;21.35;4.05;;;11.20;99.90;;;;;;4961402;28;20047;-87
2023/04/11 01:46:58;;;;;;;29.23;4.22;;;11.20;99.90;;;;;;4948385;28;20066;-84
2023/04/11 01:49:24;;;;;;;20.02;5.32;;;11.20;99.90;;;;;;4963249;28;20176;-86
2023/04/11 01:51:50;;;;;;;20.27;4.32;;;11.20;99.90;;;;;;4963201;28;20019;-86
2023/04/11 01:54:16;;;;;;;24.17;5.03;;;11.10;99.90;;;;;;4964338;28;20146;-85
2023/04/11 01:56:42;;;;;;;24.30;4.45;;;11.20;99.90;;;;;;4960900;28;20348;-86
2023/04/11 01:59:07;;;;;;;29.88;5.03;;;11.00;99.90;;;;;;4961961;28;20026;-85
2023/04/11 02:01:34;;;;;;;25.83;5.18;;;11.10;99.90;;;;;;4964480;28;20360;-86
2023/04/11 02:04:00;;;;;;;22.35;4.28;;;11.10;99.90;;;;;;4963148;28;20062;-86
2023/04/11 02:06:26;;;;;;;26.42;4.82;;;11.10;99.90;;;;;;4962736;28;20026;-87
2023/04/11 02:08:52;;;;;;;22.00;4.72;;;11.20;99.90;;;;;;4963323;28;20029;-86
2023/04/11 02:11:20;;;;;;;19.83;4.85;;;11.10;99.90;;;;;;4964932;28;20023;-85
2023/04/11 02:13:46;;;;;;;25.25;4.78;;;11.10;99.90;;;;;;4963733;28;20026;-86
2023/04/11 02:16:13;;;;;;;23.17;5.15;;;11.10;99.90;;;;;;4964213;28;20034;-84
2023/04/11 02:18:42;;;;;;;32.25;5.10;;;11.00;99.90;;;;;;4949427;28;20479;-87
2023/04/11 02:21:10;;;;;;;30.65;5.80;;;11.10;99.90;;;;;;4964985;28;20031;-88
2023/04/11 02:23:36;;;;;;;31.23;6.07;;;11.10;99.90;;;;;;4967945;28;20167;-87
2023/04/11 02:26:02;;;;;;;24.38;4.80;;;11.10;99.90;;;;;;4969011;28;20075;-87
2023/04/11 02:28:28;;;;;;;27.10;5.63;;;11.00;99.90;;;;;;4945609;28;20030;-87
2023/04/11 02:30:54;;;;;;;32.00;5.45;;;11.10;99.90;;;;;;4966008;28;20428;-85
2023/04/11 02:33:20;;;;;;;41.90;5.68;;;11.10;99.90;;;;;;4964278;28;20391;-85
2023/04/11 02:35:47;;;;;;;23.70;4.93;;;11.00;99.90;;;;;;4961233;28;20106;-89
2023/04/11 02:38:13;;;;;;;31.70;4.82;;;11.00;99.90;;;;;;4960443;28;20118;-86
2023/04/11 02:40:43;;;;;;;24.38;5.03;;;11.00;99.90;;;;;;4961192;28;20114;-85
2023/04/11 02:43:08;;;;;;;20.77;4.85;;;11.00;99.90;;;;;;4961514;28;20043;-87
2023/04/11 02:45:34;;;;;;;18.35;4.43;;;11.10;99.90;;;;;;4963337;28;20089;-86
2023/04/11 02:48:00;;;;;;;28.55;4.85;;;10.90;99.90;;;;;;4962956;28;20150;-84
2023/04/11 02:50:25;;;;;;;28.15;5.30;;;10.90;99.90;;;;;;4964770;28;20126;-85
2023/04/11 02:52:52;;;;;;;34.58;5.47;;;10.90;99.90;;;;;;4961594;28;20555;-85
2023/04/11 02:55:18;;;;;;;29.75;5.28;;;10.90;99.90;;;;;;4966605;28;20030;-91
2023/04/11 02:57:43;;;;;;;25.48;4.90;;;10.90;99.90;;;;;;4970094;28;20058;-90
2023/04/11 03:00:10;;;;;;;28.85;5.80;;;10.90;99.90;;;;;;4966606;28;20026;-85
2023/04/11 03:02:35;;;;;;;19.83;3.85;;;10.90;99.90;;;;;;4966365;28;20391;-88
2023/04/11 03:05:02;;;;;;;23.45;4.25;;;10.90;99.90;;;;;;4968189;28;20058;-84
2023/04/11 03:07:30;;;;;;;20.48;4.22;;;10.80;99.90;;;;;;4968102;28;20053;-84
2023/04/11 03:09:56;;;;;;;24.80;4.10;;;10.70;99.90;;;;;;4949078;28;20015;-85
2023/04/11 03:12:21;;;;;;;31.63;4.88;;;10.70;99.90;;;;;;4975025;28;20394;-85
2023/04/11 03:14:47;;;;;;;30.58;4.13;;;10.70;99.90;;;;;;4987350;28;20034;-88
2023/04/11 03:17:13;;;;;;;25.73;4.38;;;10.70;99.90;;;;;;4982962;28;20061;-85
2023/04/11 03:19:38;;;;;;;19.83;3.72;;;10.70;99.90;;;;;;4967881;28;20037;-85
2023/04/11 03:22:04;;;;;;;21.13;3.92;;;10.60;99.90;;;;;;4967437;28;20467;-87
2023/04/11 03:24:31;;;;;;;23.60;4.65;;;10.60;99.90;;;;;;4949423;28;20050;-87
2023/04/11 03:26:57;;;;;;;35.67;4.65;;;10.70;99.90;;;;;;4966375;28;20043;-87
2023/04/11 03:29:23;;;;;;;19.63;3.88;;;10.60;99.90;;;;;;4965215;28;20030;-84
2023/04/11 03:31:49;;;;;;;33.78;4.50;;;10.60;99.90;;;;;;4967057;28;20430;-85
2023/04/11 03:34:16;;;;;;;22.20;4.50;;;10.60;99.90;;;;;;4966341;28;20022;-87
2023/04/11 03:36:42;;;;;;;24.92;4.95;;;10.70;99.90;;;;;;4967326;28;20082;-84
2023/04/11 03:39:08;;;;;;;21.83;4.63;;;10.60;99.90;;;;;;4965503;28;20733;-85
2023/04/11 03:41:34;;;;;;;19.27;3.95;;;10.60;99.90;;;;;;4968867;28;20294;-87
2023/04/11 03:44:00;;;;;;;25.98;4.03;;;10.50;99.90;;;;;;4964906;28;20035;-86
2023/04/11 03:46:26;;;;;;;27.33;4.20;;;10.40;99.90;;;;;;4965010;28;20085;-85
2023/04/11 03:48:51;;;;;;;22.58;4.32;;;10.50;99.90;;;;;;4967427;28;20029;-85
2023/04/11 03:51:17;;;;;;;23.00;4.75;;;10.50;99.90;;;;;;4966722;28;20614;-85
2023/04/11 03:53:43;;;;;;;24.10;4.25;;;10.50;99.90;;;;;;4964076;28;20027;-86
2023/04/11 03:56:09;;;;;;;28.42;4.70;;;10.40;99.90;;;;;;4975500;28;20074;-85
2023/04/11 03:58:35;;;;;;;21.67;4.30;;;10.50;99.90;;;;;;4967634;28;20026;-85
2023/04/11 04:01:01;;;;;;;25.77;4.22;;;10.50;99.90;;;;;;4952258;28;20042;-89
2023/04/11 04:03:27;;;;;;;22.13;3.83;;;10.50;99.90;;;;;;4966148;28;20026;-85
2023/04/11 04:05:53;;;;;;;14.52;2.80;;;10.50;99.90;;;;;;4972318;28;20029;-86
2023/04/11 04:08:18;;;;;;;32.90;3.90;;;10.50;99.90;;;;;;4964271;28;20352;-84
2023/04/11 04:10:45;;;;;;;19.33;4.00;;;10.40;99.90;;;;;;4963414;28;20019;-84
2023/04/11 04:13:11;;;;;;;25.13;3.47;;;10.50;99.90;;;;;;4964243;28;20550;-86
2023/04/11 04:15:37;;;;;;;26.70;3.97;;;10.50;99.90;;;;;;4964770;28;20027;-84
2023/04/11 04:18:03;;;;;;;17.00;3.35;;;10.40;99.90;;;;;;4947253;28;20039;-85
2023/04/11 04:20:28;;;;;;;17.95;2.53;;;10.40;99.90;;;;;;4967805;28;20069;-85
2023/04/11 04:22:54;;;;;;;20.92;3.40;;;10.30;99.90;;;;;;4969051;28;20050;-84
2023/04/11 04:25:23;;;;;;;17.13;3.00;;;10.40;99.90;;;;;;4970590;28;20027;-86
2023/04/11 04:27:52;;;;;;;20.77;3.22;;;10.30;99.90;;;;;;4971265;28;20467;-86
2023/04/11 04:30:27;;;;;;;17.08;3.03;;;10.30;99.90;;;;;;4954545;28;20035;-84
2023/04/11 04:32:57;;;;;;;16.15;2.50;;;10.30;99.90;;;;;;4954265;28;20055;-84
2023/04/11 04:35:24;;;;;;;14.40;3.28;;;10.20;99.90;;;;;;4965049;28;20030;-87
2023/04/11 04:37:50;;;;;;;12.25;2.20;;;10.30;99.90;;;;;;4969050;28;20502;-84
2023/04/11 04:40:19;;;;;;;12.23;2.55;;;10.20;99.90;;;;;;4966907;28;20023;-85
2023/04/11 04:42:48;;;;;;;14.40;2.08;;;10.20;99.90;;;;;;4968520;28;20027;-85
2023/04/11 04:45:14;;;;;;;10.55;2.47;;;10.20;99.90;;;;;;4967707;28;20046;-84
2023/04/11 04:47:40;;;;;;;14.98;3.85;;;10.20;99.90;;;;;;4963007;28;20027;-88
2023/04/11 04:50:07;;;;;;;15.80;2.35;;;10.20;99.90;;;;;;4968249;28;20138;-86
2023/04/11 04:52:32;;;;;;;10.00;2.00;;;10.20;99.90;;;;;;4963073;28;20060;-86
2023/04/11 04:54:58;;;;;;;16.75;3.90;;;10.30;99.90;;;;;;4938677;28;20038;-87
2023/04/11 04:57:30;;;;;;;16.80;2.83;;;10.30;99.90;;;;;;4946572;28;20043;-85
2023/04/11 04:59:56;;;;;;;18.75;2.60;;;10.20;99.90;;;;;;4947361;28;20416;-86
2023/04/11 05:02:24;;;;;;;10.50;2.20;;;10.20;99.90;;;;;;4964012;28;20030;-84
2023/04/11 05:04:52;;;;;;;19.00;2.60;;;10.00;99.90;;;;;;4967643;28;20203;-86
2023/04/11 05:07:19;;;;;;;22.02;2.38;;;10.10;99.90;;;;;;4967839;28;20034;-84
2023/04/11 05:09:45;;;;;;;18.30;2.65;;;9.90;99.90;;;;;;4969243;28;20031;-84
2023/04/11 05:12:12;;;;;;;17.63;3.08;;;10.00;99.90;;;;;;4969783;28;20046;-87
2023/04/11 05:14:41;;;;;;;12.57;2.42;;;9.90;99.90;;;;;;4967400;28;20097;-89
2023/04/11 05:17:06;;;;;;;16.17;2.45;;;10.00;99.90;;;;;;4967488;28;20035;-84
2023/04/11 05:19:32;;;;;;;11.40;1.90;;;10.00;99.90;;;;;;4966906;28;20478;-82
2023/04/11 05:21:58;;;;;;;18.00;2.20;;;10.00;99.90;;;;;;4964122;28;20154;-82
2023/04/11 05:24:26;;;;;;;18.35;2.30;;;10.10;99.90;;;;;;4965352;28;20846;-87
2023/04/11 05:26:54;;;;;;;15.88;2.13;;;10.10;99.90;;;;;;4968065;28;20015;-86
2023/04/11 05:29:20;;;;;;;17.75;2.45;;;10.10;99.90;;;;;;4970491;28;20037;-91
2023/04/11 05:31:45;;;;;;;10.90;1.65;;;10.00;99.90;;;;;;4955496;28;20037;-88
2023/04/11 05:34:11;;;;;;;11.48;2.25;;;10.00;99.90;;;;;;4972856;28;20279;-90
2023/04/11 05:36:37;;;;;;;14.35;2.03;;;10.00;99.90;;;;;;4972209;28;20027;-90
2023/04/11 05:39:03;;;;;;;19.65;2.22;;;10.00;99.90;;;;;;4973712;28;20034;-90
2023/04/11 05:41:28;;;;;;;17.23;2.10;;;10.00;99.90;;;;;;4967882;28;20027;-85
2023/04/11 05:43:54;;;;;;;8.75;1.50;;;10.10;99.90;;;;;;4973260;28;20433;-89
2023/04/11 05:46:19;;;;;;;16.27;2.10;;;10.20;99.90;;;;;;4954312;28;20099;-87
2023/04/11 05:48:45;;;;;;;18.23;2.33;;;10.20;99.90;;;;;;4971113;28;20031;-84
2023/04/11 05:51:11;;;;;;;12.55;2.38;;;10.30;99.90;;;;;;4964195;28;20027;-84
2023/04/11 05:53:36;;;;;;;15.90;2.17;;;10.30;99.90;;;;;;4973386;28;20522;-83
2023/04/11 05:56:02;;;;;;;17.92;2.63;;;10.40;99.90;;;;;;4967262;28;20082;-83
2023/04/11 05:58:28;;;;;;;6.20;2.10;;;10.40;99.90;;;;;;4967928;28;20597;-83
2023/04/11 06:00:56;;;;;;;13.45;3.22;;;10.50;99.90;;;;;;4964871;28;20022;-83
2023/04/11 06:03:22;;;;;;;13.48;2.03;;;10.40;99.90;;;;;;4949517;28;20385;-83
2023/04/11 06:05:47;;;;;;;14.63;2.03;;;10.50;99.90;;;;;;4965461;28;20026;-86
2023/04/11 06:08:13;;;;;;;15.23;1.83;;;10.50;99.90;;;;;;4966996;28;20042;-84
2023/04/11 06:10:39;;;;;;;17.92;2.40;;;10.60;99.90;;;;;;4967011;28;20015;-85
2023/04/11 06:13:04;;;;;;;11.80;1.88;;;10.60;99.90;;;;;;4951145;28;20196;-85
2023/04/11 06:15:30;;;;;;;15.77;1.85;;;10.50;99.90;;;;;;4965362;28;20085;-83
2023/04/11 06:17:58;;;;;;;13.27;2.85;;;10.50;99.90;;;;;;4966695;28;20611;-83
2023/04/11 06:20:24;;;;;;;15.65;2.67;;;10.50;99.90;;;;;;4965591;28;20113;-86
2023/04/11 06:22:52;;;;;;;17.75;2.38;;;10.50;99.90;;;;;;4964653;28;20015;-85
2023/04/11 06:25:19;;;;;;;10.32;1.67;;;10.60;99.90;;;;;;4965543;28;20023;-84
2023/04/11 06:27:45;;;;;;;14.55;2.05;;;10.50;99.90;;;;;;4968514;28;20050;-84
2023/04/11 06:30:11;;;;;;;14.38;2.92;;;10.50;99.90;;;;;;4965021;28;20729;-84
2023/04/11 06:32:39;;;;;;;15.95;2.00;;;10.40;99.90;;;;;;4965451;28;20030;-85
2023/04/11 06:35:05;;;;;;;14.52;2.40;;;10.50;99.90;;;;;;4969617;28;20073;-83
2023/04/11 06:37:31;;;;;;;16.10;2.17;;;10.40;99.90;;;;;;4962472;28;20031;-85
2023/04/11 06:39:59;;;;;;;10.13;1.60;;;10.40;99.90;;;;;;4965161;28;20034;-84
2023/04/11 06:42:25;;;;;;;17.00;2.50;;;10.50;99.90;;;;;;4947573;28;20029;-84
2023/04/11 06:44:51;;;;;;;14.55;1.88;;;10.60;99.90;;;;;;4963864;28;20190;-86
2023/04/11 06:47:16;;;;;;;11.60;2.80;;;10.70;99.90;;;;;;4961992;28;20038;-85
2023/04/11 06:49:42;;;;;;;19.55;2.30;;;10.70;99.90;;;;;;4966617;28;20475;-87
2023/04/11 06:52:08;;;;;;;16.42;2.08;;;10.60;99.90;;;;;;4966752;28;20038;-85
2023/04/11 06:54:33;;;;;;;16.25;2.72;;;10.60;99.90;;;;;;4966206;28;20019;-84
2023/04/11 06:56:59;;;;;;;9.73;1.80;;;10.80;99.90;;;;;;4968063;28;20015;-84
2023/04/11 06:59:27;;;;;;;12.65;1.88;;;10.80;99.90;;;;;;4968249;28;20023;-83
2023/04/11 07:01:52;;;;;;;9.20;1.63;;;10.80;99.90;;;;;;4968788;28;20426;-84
2023/04/11 07:04:18;;;;;;;13.15;1.55;;;10.80;99.90;;;;;;4965048;28;20041;-83
2023/04/11 07:06:46;;;;;;;9.95;1.95;;;10.80;99.90;;;;;;4947853;28;20041;-83
2023/04/11 07:09:11;;;;;;;18.55;2.33;;;11.00;99.90;;;;;;4965376;28;20023;-83
2023/04/11 07:11:37;;;;;;;16.70;2.80;;;11.00;99.90;;;;;;4948964;28;20030;-83
2023/04/11 07:14:03;;;;;;;8.82;2.17;;;10.90;99.90;;;;;;4951148;28;20031;-84
2023/04/11 07:16:28;;;;;;;17.17;2.13;;;10.90;99.90;;;;;;4964999;28;20349;-85
2023/04/11 07:18:54;;;;;;;18.63;2.35;;;10.90;99.90;;;;;;4965693;28;20617;-84
2023/04/11 07:21:20;;;;;;;8.82;2.05;;;10.90;99.90;;;;;;4963560;28;20030;-84
2023/04/11 07:23:46;;;;;;;17.27;2.08;;;11.00;99.90;;;;;;4944834;28;20043;-88
2023/04/11 07:26:13;;;;;;;12.30;2.22;;;11.00;99.90;;;;;;4966035;28;20041;-81
2023/04/11 07:28:39;;;;;;;11.43;2.20;;;11.20;99.90;;;;;;4960512;28;20031;-84
2023/04/11 07:31:09;;;;;;;20.00;2.78;;;11.30;99.90;;;;;;4963215;28;20308;-84
2023/04/11 07:33:40;;;;;;;16.48;2.28;;;11.20;99.90;;;;;;4966037;28;20646;-84
2023/04/11 07:36:07;;;;;;;21.30;2.60;;;11.10;99.90;;;;;;4951898;28;20033;-84
2023/04/11 07:38:33;;;;;;;15.52;2.72;;;11.10;99.90;;;;;;4964004;28;20107;-85
2023/04/11 07:41:00;;;;;;;13.52;2.42;;;11.40;99.90;;;;;;4949118;28;20019;-83
2023/04/11 07:43:27;;;;;;;14.55;2.67;;;11.50;99.90;;;;;;4962327;28;20155;-84
2023/04/11 07:45:54;;;;;;;24.10;3.63;;;11.40;99.90;;;;;;4962196;28;20039;-83
2023/04/11 07:48:24;;;;;;;21.25;4.22;;;11.60;99.90;;;;;;4949045;28;20082;-82
2023/04/11 07:50:51;;;;;;;12.00;2.15;;;11.50;99.90;;;;;;4961677;28;20038;-85
2023/04/11 07:53:17;;;;;;;19.23;3.55;;;11.30;99.90;;;;;;4965423;28;20035;-84
2023/04/11 07:55:42;;;;;;;21.98;2.88;;;11.20;99.90;;;;;;4964480;28;20403;-83
2023/04/11 07:58:08;;;;;;;11.23;2.00;;;11.40;99.90;;;;;;4946235;28;20479;-83
2023/04/11 08:00:34;;;;;;;14.23;2.45;;;11.40;99.90;;;;;;4964583;28;20022;-84
2023/04/11 08:03:06;;;;;;;20.77;2.45;;;11.50;99.90;;;;;;4944239;28;20027;-82
2023/04/11 08:05:35;;;;;;;18.02;2.17;;;11.40;99.90;;;;;;4966734;28;20081;-94
2023/04/11 08:08:03;;;;;;;9.93;2.38;;;11.50;99.90;;;;;;4939228;28;20027;-95
2023/04/11 08:10:30;;;;;;;14.43;2.00;;;11.50;99.90;;;;;;4975140;28;20027;-93
2023/04/11 08:12:57;;;;;;;10.80;1.80;;;11.70;99.90;;;;;;4955064;28;20014;-93
2023/04/11 08:15:30;;;;;;;11.60;2.00;;;11.80;99.90;;;;;;5068862;23;20058;-96
2023/04/11 08:17:58;;;;;;;10.60;1.80;;;11.80;99.90;;;;;;4952936;28;20039;-96
2023/04/11 08:20:27;;;;;;;6.45;1.20;;;11.70;99.90;;;;;;4968839;28;21307;-96
2023/04/11 08:22:53;;;;;;;6.80;1.50;;;11.30;99.90;;;;;;4967075;28;20022;-90
2023/04/11 08:25:21;;;;;;;10.27;1.45;;;10.70;99.90;;;;;;5143595;23;20055;-96
2023/04/11 08:27:47;;;;;;;15.60;1.65;;;10.60;99.90;;;;;;4977884;28;20382;-95
2023/04/11 08:30:16;;;;;;;12.25;1.20;;;10.70;99.90;;;;;;5023252;23;20053;-91
2023/04/11 08:35:17;;;;;;;14.13;1.95;;;10.80;99.90;;;;;;5021358;22;20045;-96
2023/04/11 08:37:43;;;;;;;14.90;1.85;;;11.30;99.90;;;;;;5176614;23;20062;-94
2023/04/11 08:40:10;;;;;;;15.43;2.17;;;11.70;99.90;;;;;;4970455;28;20161;-96
2023/04/11 08:42:38;;;;;;;11.27;3.10;;;12.20;99.90;;;;;;5102835;23;20057;-95
2023/04/11 08:45:07;;;;;;;13.68;2.10;;;12.30;99.90;;;;;;4981296;28;20074;-84
2023/04/11 08:47:34;;;;;;;8.93;1.88;;;12.30;99.90;;;;;;5011209;28;20466;-82
2023/04/11 08:50:00;;;;;;;6.13;1.60;;;12.40;99.90;;;;;;5014949;28;20192;-87
2023/04/11 08:52:27;;;;;;;8.32;2.22;;;12.70;99.90;;;;;;5022313;28;20037;-96
2023/04/11 08:54:56;;;;;;;12.93;2.08;;;12.80;99.90;;;;;;5026878;28;20275;-94
2023/04/11 08:57:25;;;;;;;11.75;1.95;;;12.70;99.90;;;;;;5070220;23;20274;-83
2023/04/11 08:59:55;;;;;;;16.67;2.10;;;12.50;99.90;;;;;;4977176;28;20042;-82
2023/04/11 09:02:21;;;;;;;13.35;2.15;;;12.40;99.90;;;;;;4972186;28;20088;-83
2023/04/11 09:07:22;;;;;;;7.70;1.60;;;12.80;99.90;;;;;;4993493;23;20194;-82
2023/04/11 09:09:47;;;;;;;11.05;1.98;;;13.30;99.90;;;;;;4972704;28;20019;-83
2023/04/11 09:12:13;;;;;;;5.93;1.27;;;13.60;99.90;;;;;;5014169;23;20046;-95
2023/04/11 09:17:15;;;;;;;11.40;1.75;;;13.70;99.90;;;;;;5064333;23;20066;-88
2023/04/11 09:19:41;;;;;;;8.15;1.92;;;14.00;99.90;;;;;;4967498;28;20030;-85
2023/04/11 09:22:07;;;;;;;12.25;2.25;;;14.00;99.90;;;;;;4955725;28;20026;-81
2023/04/11 09:24:34;;;;;;;7.70;1.55;;;14.00;99.90;;;;;;4964836;28;20030;-83
2023/04/11 09:27:13;;;;;;;10.70;1.52;;;14.00;99.90;;;;;;4972897;28;20057;-83
2023/04/11 09:29:41;;;;;;;7.32;1.92;;;13.70;99.90;;;;;;4973584;28;20435;-95
2023/04/11 09:32:32;;;;;;;9.25;1.38;;;13.70;99.90;;;;;;4991142;28;20038;-95
2023/04/11 09:35:17;;;;;;;9.07;1.60;;;13.80;99.90;;;;;;4983966;28;20026;-93
2023/04/11 09:38:04;;;;;;;16.50;1.95;;;13.80;99.90;;;;;;4990935;28;20078;-96
2023/04/11 09:40:44;;;;;;;6.53;1.60;;;14.20;99.90;;;;;;5152302;23;20549;-95
2023/04/11 09:43:20;;;;;;;8.15;1.55;;;14.60;99.90;;;;;;4977370;28;20035;-95
2023/04/11 09:46:19;;;;;;;8.82;1.58;;;14.80;99.40;;;;;;4972356;28;20046;-96
2023/04/11 09:48:47;;;;;;;5.75;1.40;;;15.20;99.20;;;;;;4979069;28;20046;-95
2023/04/11 09:53:51;;;;;;;10.05;1.60;;;15.80;97.60;;;;;;5039983;23;20513;-91
2023/04/11 09:56:19;;;;;;;12.52;2.00;;;16.20;96.10;;;;;;5010874;28;20128;-95
2023/04/11 09:58:46;;;;;;;10.80;2.00;;;16.60;94.30;;;;;;5013190;28;20026;-86
2023/04/11 10:01:13;;;;;;;6.22;1.33;;;16.60;93.60;;;;;;5236294;23;20432;-81
2023/04/11 10:03:39;;;;;;;7.20;1.48;;;16.70;93.30;;;;;;4952722;28;20062;-82
2023/04/11 10:06:08;;;;;;;9.98;1.58;;;16.60;92.90;;;;;;4950666;28;20027;-85
2023/04/11 10:08:36;;;;;;;8.82;2.08;;;16.20;94.50;;;;;;4952104;28;20078;-82
2023/04/11 10:11:07;;;;;;;5.22;1.15;;;15.80;93.70;;;;;;4957436;28;20507;-85
2023/04/11 10:13:47;;;;;;;6.78;1.65;;;15.40;94.40;;;;;;4953135;28;20058;-82
2023/04/11 10:16:17;;;;;;;12.50;1.63;;;15.20;94.10;;;;;;4961470;28;20590;-81
2023/04/11 10:18:54;;;;;;;5.70;1.27;;;14.40;96.00;;;;;;4951099;28;20062;-83
2023/04/11 10:21:29;;;;;;;4.78;1.52;;;14.60;96.30;;;;;;4954862;28;20116;-84
2023/04/11 10:24:08;;;;;;;10.98;1.65;;;14.70;96.90;;;;;;4953939;28;20375;-83
2023/04/11 10:26:55;;;;;;;7.38;1.38;;;15.20;96.40;;;;;;4955693;28;20075;-87
2023/04/11 10:32:14;;;;;;;8.32;2.22;;;15.20;95.10;;;;;;4954209;28;20475;-81
2023/04/11 10:35:00;;;;;;;7.07;1.20;;;15.30;94.70;;;;;;4958106;28;20035;-86
2023/04/11 10:37:28;;;;;;;10.38;1.50;;;15.50;96.40;;;;;;4963514;28;20023;-83
2023/04/11 10:39:56;;;;;;;5.97;1.38;;;15.40;95.10;;;;;;4958765;28;20600;-82
2023/04/11 10:42:41;;;;;;;6.38;1.83;;;15.70;95.00;;;;;;4953103;28;20027;-81
2023/04/11 10:45:23;;;;;;;8.65;1.98;;;15.70;95.00;;;;;;4964979;28;20233;-85
2023/04/11 10:48:12;;;;;;;10.48;1.20;;;15.90;94.80;;;;;;4948889;28;20019;-82
2023/04/11 10:50:45;;;;;;;5.07;0.93;;;15.70;91.60;;;;;;4953392;28;20547;-81
2023/04/11 10:53:32;;;;;;;7.22;1.50;;;15.60;91.70;;;;;;4949686;28;20034;-82
2023/04/11 10:55:58;;;;;;;4.05;1.17;;;15.80;91.90;;;;;;4951719;28;20031;-85
2023/04/11 10:58:38;;;;;;;5.03;1.58;;;15.80;93.80;;;;;;4959717;28;20083;-84
2023/04/11 11:01:13;;;;;;;2.72;1.08;;;16.00;91.60;;;;;;4953814;28;20022;-82
2023/04/11 11:03:39;;;;;;;6.97;1.73;;;15.70;92.00;;;;;;4953920;28;20050;-84
2023/04/11 11:06:13;;;;;;;9.05;1.80;;;16.10;91.70;;;;;;4956863;28;20097;-84
2023/04/11 11:08:40;;;;;;;8.05;1.58;;;16.10;91.40;;;;;;4954200;28;20023;-84
2023/04/11 11:11:10;;;;;;;10.02;1.50;;;16.10;90.90;;;;;;4970983;28;20038;-83
2023/04/11 11:13:52;;;;;;;12.65;2.17;;;16.40;90.00;;;;;;4952927;28;20085;-83
2023/04/11 11:16:23;;;;;;;8.63;1.67;;;16.50;91.70;;;;;;4952612;28;20032;-86
2023/04/11 11:18:54;;;;;;;8.52;1.92;;;16.40;89.40;;;;;;4956180;28;20031;-82
2023/04/11 11:21:23;;;;;;;6.30;2.05;;;16.60;90.00;;;;;;4956745;28;20359;-82
2023/04/11 11:23:57;;;;;;;8.65;1.60;;;16.70;89.50;;;;;;4956004;28;20471;-81
2023/04/11 11:26:40;;;;;;;6.68;1.70;;;16.50;87.80;;;;;;4951494;28;20054;-81
2023/04/11 11:29:06;;;;;;;7.70;1.20;;;15.60;83.80;;;;;;4958186;28;20118;-81
2023/04/11 11:31:44;;;;;;;10.38;1.38;;;15.60;84.80;;;;;;4945950;28;20027;-85
2023/04/11 11:34:11;;;;;;;4.68;0.93;;;16.00;83.60;;;;;;4964138;28;20118;-83
2023/04/11 11:36:43;;;;;;;7.75;1.45;;;16.00;83.70;;;;;;4951082;28;20034;-82
2023/04/11 11:39:10;;;;;;;10.30;2.33;;;16.30;83.60;;;;;;4965660;28;20038;-81
2023/04/11 11:41:40;;;;;;;8.88;1.80;;;16.40;83.50;;;;;;4949796;28;20642;-84
2023/04/11 11:44:06;;;;;;;9.48;1.70;;;16.00;82.80;;;;;;4963491;28;20085;-82
2023/04/11 11:46:34;;;;;;;4.70;1.25;;;16.00;82.90;;;;;;4949552;28;20051;-82
2023/04/11 11:49:02;;;;;;;4.30;1.50;;;16.10;84.30;;;;;;4952641;28;20088;-82
2023/04/11 11:51:41;;;;;;;13.88;2.75;;;16.10;83.10;;;;;;4947645;28;20030;-82
2023/04/11 11:54:08;;;;;;;7.72;1.42;;;16.40;81.40;;;;;;4956541;28;20031;-84
2023/04/11 11:56:38;;;;;;;7.30;1.85;;;16.60;82.00;;;;;;4959730;28;20181;-83
2023/04/11 11:59:05;;;;;;;8.13;1.42;;;16.10;80.20;;;;;;4967441;28;20019;-84
2023/04/11 12:01:35;;;;;;;11.00;1.95;;;16.00;82.60;;;;;;4966464;28;20221;-83
2023/04/11 12:04:11;;;;;;;6.70;1.08;;;16.00;82.00;;;;;;4971224;28;20446;-85
2023/04/11 12:06:36;;;;;;;5.50;1.33;;;16.10;82.40;;;;;;4965123;28;20239;-85
2023/04/11 12:09:06;;;;;;;9.90;1.55;;;16.10;83.20;;;;;;4953497;28;20030;-86
2023/04/11 12:11:39;;;;;;;12.25;4.43;;;16.50;84.70;;;;;;4970752;28;20036;-85
2023/04/11 12:14:05;;;;;;;30.75;10.05;;;17.40;81.40;;;;;;4953085;28;20023;-82
2023/04/11 12:16:33;;;;;;;4.03;1.60;;;17.40;75.30;;;;;;4957028;28;20349;-84
2023/04/11 12:19:01;;;;;;;5.28;1.35;;;17.00;76.00;;;;;;4967824;28;20054;-83
2023/04/11 12:21:28;;;;;;;10.60;1.88;;;17.10;76.50;;;;;;4952673;28;20051;-84
2023/04/11 12:24:01;;;;;;;5.97;1.70;;;17.20;75.50;;;;;;4952787;28;20050;-81
2023/04/11 12:26:26;;;;;;;28.15;8.63;;;17.20;73.40;;;;;;4956914;28;20030;-83
2023/04/11 12:28:52;;;;;;;13.00;3.00;;;16.80;74.00;;;;;;4955106;28;20452;-82
2023/04/11 12:31:20;;;;;;;4.55;1.30;;;17.10;75.10;;;;;;4955094;28;20039;-87
2023/04/11 12:33:47;;;;;;;4.82;1.25;;;17.10;71.30;;;;;;4956071;28;20357;-85
2023/04/11 12:36:13;;;;;;;12.52;1.88;;;17.50;72.50;;;;;;4955793;28;20070;-83
2023/04/11 12:38:39;;;;;;;7.72;1.40;;;17.40;71.30;;;;;;4956984;28;20070;-83
2023/04/11 12:41:05;;;;;;;6.75;1.35;;;17.20;71.50;;;;;;4972090;28;20026;-88
2023/04/11 12:43:31;;;;;;;8.77;1.40;;;17.50;72.00;;;;;;4971624;28;20399;-82
2023/04/11 12:45:56;;;;;;;6.85;1.70;;;17.30;69.60;;;;;;4958746;28;20027;-85
2023/04/11 12:48:22;;;;;;;7.05;1.70;;;17.30;71.80;;;;;;4957757;28;20035;-83
2023/04/11 12:50:48;;;;;;;10.32;1.63;;;17.40;69.50;;;;;;4957603;28;20039;-83
2023/04/11 12:53:13;;;;;;;6.93;1.20;;;17.50;67.20;;;;;;4964825;28;20053;-85
2023/04/11 12:55:39;;;;;;;7.60;1.10;;;17.50;65.40;;;;;;4961620;28;20022;-86
2023/04/11 12:58:07;;;;;;;3.90;1.23;;;17.70;66.30;;;;;;4961521;28;20102;-83